createdAt,value
2018-12-27T00:01:56.364Z,14.13
2018-12-27T00:04:38.288Z,13.77
2018-12-27T00:07:20.203Z,14.40
2018-12-27T00:10:01.720Z,14.80
2018-12-27T00:12:43.024Z,14.67
2018-12-27T00:15:24.964Z,13.80
2018-12-27T00:18:06.136Z,13.90
2018-12-27T00:20:47.594Z,18.03
2018-12-27T00:23:28.923Z,17.33
2018-12-27T00:26:10.219Z,17.37
2018-12-27T00:28:51.312Z,17.00
2018-12-27T00:31:32.427Z,17.07
2018-12-27T00:34:15.147Z,16.97
2018-12-27T00:36:56.617Z,14.83
2018-12-27T00:39:38.231Z,16.33
2018-12-27T00:42:19.628Z,13.90
2018-12-27T00:45:01.105Z,14.83
2018-12-27T00:47:42.249Z,14.43
2018-12-27T00:50:23.657Z,13.60
2018-12-27T00:53:04.892Z,13.03
2018-12-27T00:55:45.949Z,13.70
2018-12-27T00:58:27.408Z,13.03
2018-12-27T01:01:09.092Z,13.93
2018-12-27T01:03:50.129Z,13.00
2018-12-27T01:06:31.168Z,13.67
2018-12-27T01:09:12.703Z,12.97
2018-12-27T01:11:53.721Z,14.23
2018-12-27T01:18:00.784Z,14.10
2018-12-27T01:20:41.833Z,12.93
2018-12-27T01:23:24.008Z,13.17
2018-12-27T01:28:49.052Z,13.00
2018-12-27T01:31:30.675Z,12.60
2018-12-27T01:34:11.740Z,14.30
2018-12-27T01:36:53.042Z,11.67
2018-12-27T01:39:34.290Z,12.97
2018-12-27T01:42:15.573Z,12.63
2018-12-27T01:44:56.724Z,13.37
2018-12-27T01:47:38.244Z,12.60
2018-12-27T01:50:19.696Z,13.23
2018-12-27T01:53:01.076Z,13.00
2018-12-27T01:55:42.163Z,12.93
2018-12-27T01:58:23.530Z,14.37
2018-12-27T02:01:05.317Z,12.40
2018-12-27T02:03:47.170Z,12.73
2018-12-27T02:06:29.099Z,12.67
2018-12-27T02:09:10.748Z,13.47
2018-12-27T02:11:52.108Z,13.07
2018-12-27T02:14:33.420Z,13.97
2018-12-27T02:17:15.360Z,13.93
2018-12-27T02:19:57.222Z,12.13
2018-12-27T02:22:38.709Z,12.63
2018-12-27T02:25:20.603Z,12.47
2018-12-27T02:28:02.420Z,12.70
2018-12-27T02:30:44.390Z,12.57
2018-12-27T02:33:25.573Z,13.03
2018-12-27T02:36:06.785Z,14.00
2018-12-27T02:38:47.886Z,12.83
2018-12-27T02:41:29.041Z,13.63
2018-12-27T02:44:10.966Z,12.77
2018-12-27T02:46:52.793Z,13.03
2018-12-27T02:49:33.879Z,13.30
2018-12-27T02:52:15.241Z,12.60
2018-12-27T02:54:56.843Z,11.13
2018-12-27T02:57:37.976Z,12.47
2018-12-27T03:00:19.025Z,12.03
2018-12-27T03:03:00.348Z,12.03
2018-12-27T03:05:41.701Z,12.30
2018-12-27T03:08:22.854Z,11.87
2018-12-27T03:11:03.888Z,11.47
2018-12-27T03:13:45.672Z,12.13
2018-12-27T03:16:27.363Z,12.47
2018-12-27T03:19:08.441Z,12.60
2018-12-27T03:21:49.918Z,10.87
2018-12-27T03:24:31.344Z,11.80
2018-12-27T03:27:12.832Z,12.00
2018-12-27T03:29:54.011Z,11.50
2018-12-27T03:32:35.345Z,11.00
2018-12-27T03:35:16.500Z,12.63
2018-12-27T03:37:57.772Z,10.83
2018-12-27T03:40:38.768Z,11.47
2018-12-27T03:43:20.700Z,12.33
2018-12-27T03:46:01.883Z,11.07
2018-12-27T03:48:43.852Z,11.17
2018-12-27T03:51:25.132Z,13.20
2018-12-27T03:54:07.024Z,11.50
2018-12-27T03:56:48.076Z,13.17
2018-12-27T03:59:29.239Z,11.47
2018-12-27T04:02:11.011Z,12.53
2018-12-27T04:04:52.329Z,12.57
2018-12-27T04:07:33.479Z,11.90
2018-12-27T04:10:14.455Z,11.97
2018-12-27T04:12:55.837Z,10.80
2018-12-27T04:15:37.285Z,11.00
2018-12-27T04:18:18.540Z,11.37
2018-12-27T04:20:59.725Z,10.20
2018-12-27T04:27:06.385Z,9.10
2018-12-27T04:29:47.547Z,9.53
2018-12-27T04:32:28.929Z,9.67
2018-12-27T04:35:10.398Z,8.60
2018-12-27T04:37:51.727Z,8.63
2018-12-27T04:40:33.572Z,9.07
2018-12-27T04:43:15.435Z,9.40
2018-12-27T04:45:57.186Z,8.47
2018-12-27T04:48:38.316Z,9.07
2018-12-27T04:51:19.731Z,9.37
2018-12-27T04:54:01.319Z,9.43
2018-12-27T04:56:42.649Z,9.57
2018-12-27T04:59:23.990Z,10.27
2018-12-27T05:02:05.836Z,9.50
2018-12-27T05:04:47.169Z,9.53
2018-12-27T05:07:28.443Z,9.53
2018-12-27T05:10:09.473Z,9.20
2018-12-27T05:12:51.499Z,9.00
2018-12-27T05:15:51.723Z,8.60
2018-12-27T05:18:33.274Z,9.30
2018-12-27T05:21:14.968Z,8.37
2018-12-27T05:23:56.830Z,8.70
2018-12-27T05:26:38.763Z,8.80
2018-12-27T05:29:20.773Z,8.27
2018-12-27T05:32:01.891Z,9.30
2018-12-27T05:34:43.391Z,8.33
2018-12-27T05:37:24.849Z,8.37
2018-12-27T05:40:06.771Z,7.90
2018-12-27T05:42:48.472Z,8.10
2018-12-27T05:45:29.820Z,8.93
2018-12-27T05:48:10.955Z,9.10
2018-12-27T05:50:52.941Z,8.13
2018-12-27T05:53:34.313Z,10.40
2018-12-27T05:56:15.266Z,8.50
2018-12-27T05:58:56.860Z,8.37
2018-12-27T06:01:38.059Z,8.87
2018-12-27T06:04:19.564Z,9.00
2018-12-27T06:07:00.892Z,8.37
2018-12-27T06:09:41.945Z,9.40
2018-12-27T06:12:23.554Z,8.37
2018-12-27T06:15:04.944Z,8.93
2018-12-27T06:17:46.300Z,7.93
2018-12-27T06:20:28.298Z,7.73
2018-12-27T06:23:09.640Z,8.50
2018-12-27T06:25:51.018Z,8.60
2018-12-27T06:28:32.029Z,8.27
2018-12-27T06:31:13.326Z,8.50
2018-12-27T06:33:54.765Z,7.90
2018-12-27T06:36:36.197Z,8.70
2018-12-27T06:39:20.767Z,7.40
2018-12-27T06:42:02.141Z,7.53
2018-12-27T06:44:43.360Z,8.97
2018-12-27T06:47:24.813Z,8.90
2018-12-27T06:50:06.400Z,8.40
2018-12-27T06:52:47.604Z,7.40
2018-12-27T06:58:38.115Z,7.80
2018-12-27T07:01:19.388Z,9.20
2018-12-27T07:04:00.815Z,8.30
2018-12-27T07:06:41.820Z,8.37
2018-12-27T07:09:23.220Z,8.87
2018-12-27T07:12:04.259Z,9.30
2018-12-27T07:14:45.469Z,8.03
2018-12-27T07:17:26.716Z,8.83
2018-12-27T07:20:07.732Z,10.00
2018-12-27T07:22:49.066Z,9.40
2018-12-27T07:25:30.524Z,9.80
2018-12-27T07:28:11.761Z,10.33
2018-12-27T07:30:53.316Z,9.93
2018-12-27T07:33:34.559Z,9.13
2018-12-27T07:36:15.908Z,9.73
2018-12-27T07:38:56.990Z,9.10
2018-12-27T07:41:38.043Z,9.27
2018-12-27T07:44:19.521Z,10.20
2018-12-27T07:47:00.570Z,9.53
2018-12-27T07:49:41.803Z,8.73
2018-12-27T07:52:23.257Z,9.53
2018-12-27T07:55:05.236Z,10.23
2018-12-27T07:57:46.991Z,10.00
2018-12-27T08:00:28.084Z,10.03
2018-12-27T08:03:10.075Z,11.40
2018-12-27T08:05:51.196Z,10.20
2018-12-27T08:08:32.265Z,10.00
2018-12-27T08:11:13.335Z,10.00
2018-12-27T08:13:54.632Z,10.03
2018-12-27T08:16:35.881Z,9.90
2018-12-27T08:19:17.326Z,9.63
2018-12-27T08:21:59.335Z,10.70
2018-12-27T08:24:41.028Z,10.67
2018-12-27T08:27:22.094Z,10.33
2018-12-27T08:30:03.584Z,12.13
2018-12-27T08:53:03.263Z,9.00
2018-12-27T08:55:44.732Z,9.43
2018-12-27T08:58:26.178Z,11.23
2018-12-27T09:01:07.336Z,11.57
2018-12-27T09:03:48.906Z,10.87
2018-12-27T09:06:29.880Z,11.57
2018-12-27T09:22:20.778Z,9.87
2018-12-27T09:25:21.135Z,10.67
2018-12-27T09:28:02.271Z,15.33
2018-12-27T09:30:43.411Z,15.17
2018-12-27T09:33:24.820Z,17.23
2018-12-27T09:36:05.945Z,17.40
2018-12-27T09:38:47.659Z,17.37
2018-12-27T09:41:28.709Z,16.40
2018-12-27T09:44:10.092Z,17.50
2018-12-27T09:46:51.511Z,16.03
2018-12-27T09:49:32.584Z,20.57
2018-12-27T09:52:14.235Z,18.97
2018-12-27T09:54:56.196Z,18.40
2018-12-27T09:57:37.291Z,17.97
2018-12-27T10:00:18.488Z,17.57
2018-12-27T10:02:59.672Z,15.50
2018-12-27T10:05:40.911Z,14.97
2018-12-27T10:08:26.229Z,15.67
2018-12-27T10:11:07.960Z,12.10
2018-12-27T10:13:48.932Z,12.40
2018-12-27T10:16:30.887Z,11.67
2018-12-27T10:19:11.953Z,10.20
2018-12-27T10:21:53.112Z,12.20
2018-12-27T10:24:53.647Z,11.50
2018-12-27T10:27:54.353Z,11.40
2018-12-27T10:30:35.897Z,12.40
2018-12-27T10:33:16.934Z,12.23
2018-12-27T10:35:58.462Z,13.80
2018-12-27T10:38:39.528Z,18.03
2018-12-27T10:41:20.869Z,17.67
2018-12-27T10:44:02.419Z,19.53
2018-12-27T10:46:43.980Z,24.00
2018-12-27T10:49:25.527Z,25.47
2018-12-27T10:52:06.892Z,17.10
2018-12-27T10:54:48.375Z,16.27
2018-12-27T10:57:29.892Z,17.30
2018-12-27T11:00:11.231Z,19.20
2018-12-27T11:02:52.921Z,16.83
2018-12-27T11:05:34.255Z,16.93
2018-12-27T11:15:02.167Z,12.03
2018-12-27T11:17:44.031Z,13.47
2018-12-27T11:20:25.734Z,9.90
2018-12-27T11:23:26.137Z,10.10
2018-12-27T11:26:07.719Z,8.27
2018-12-27T11:28:49.253Z,9.73
2018-12-27T11:31:30.487Z,8.40
2018-12-27T11:34:11.875Z,9.90
2018-12-27T11:36:53.245Z,8.37
2018-12-27T11:39:34.588Z,8.53
2018-12-27T11:42:15.807Z,8.50
2018-12-27T11:44:57.441Z,8.93
2018-12-27T11:47:38.915Z,8.23
2018-12-27T11:50:21.308Z,9.20
2018-12-27T11:53:03.101Z,8.10
2018-12-27T11:55:44.607Z,8.13
2018-12-27T11:58:26.545Z,8.20
2018-12-27T12:01:07.632Z,7.87
2018-12-27T12:03:49.431Z,7.60
2018-12-27T12:06:31.287Z,7.90
2018-12-27T12:12:37.834Z,8.17
2018-12-27T12:15:19.077Z,8.63
2018-12-27T12:18:00.220Z,8.00
2018-12-27T12:20:41.483Z,8.93
2018-12-27T12:23:25.892Z,7.80
2018-12-27T12:29:26.719Z,9.63
2018-12-27T12:35:44.352Z,11.07
2018-12-27T12:41:49.427Z,10.90
2018-12-27T12:44:31.343Z,9.90
2018-12-27T12:47:12.544Z,10.30
2018-12-27T12:49:53.845Z,13.57
2018-12-27T12:52:34.928Z,19.87
2018-12-27T12:55:16.866Z,18.53
2018-12-27T12:57:57.894Z,12.10
2018-12-27T13:00:39.255Z,8.80
2018-12-27T13:03:21.431Z,7.33
2018-12-27T13:06:02.561Z,7.17
2018-12-27T13:08:43.853Z,7.23
2018-12-27T13:14:08.356Z,7.53
2018-12-27T13:16:49.798Z,7.57
2018-12-27T13:19:31.664Z,9.17
2018-12-27T13:22:13.131Z,6.93
2018-12-27T13:24:54.395Z,7.23
2018-12-27T13:27:36.165Z,6.60
2018-12-27T13:30:17.612Z,6.67
2018-12-27T13:32:59.103Z,6.37
2018-12-27T13:35:40.311Z,6.07
2018-12-27T13:38:21.892Z,6.00
2018-12-27T13:41:03.489Z,6.60
2018-12-27T13:43:44.647Z,6.87
2018-12-27T13:46:26.238Z,6.67
2018-12-27T13:49:07.455Z,6.13
2018-12-27T13:51:49.481Z,6.23
2018-12-27T13:54:30.696Z,7.57
2018-12-27T13:57:12.453Z,5.57
2018-12-27T13:59:54.092Z,7.03
2018-12-27T14:02:36.547Z,7.27
2018-12-27T14:05:17.900Z,6.30
2018-12-27T14:07:59.347Z,6.60
2018-12-27T14:10:40.473Z,6.93
2018-12-27T14:13:22.160Z,6.97
2018-12-27T14:16:03.525Z,6.83
2018-12-27T14:22:24.457Z,6.73
2018-12-27T14:25:06.087Z,6.60
2018-12-27T14:28:08.032Z,6.30
2018-12-27T14:30:49.742Z,6.47
2018-12-27T14:33:31.116Z,6.53
2018-12-27T14:36:12.687Z,6.83
2018-12-27T14:38:54.065Z,5.60
2018-12-27T14:41:35.510Z,5.97
2018-12-27T14:44:16.801Z,6.10
2018-12-27T14:50:18.019Z,7.90
2018-12-27T14:52:59.877Z,6.80
2018-12-27T14:55:41.099Z,8.23
2018-12-27T15:02:01.277Z,10.80
2018-12-27T15:05:01.450Z,9.90
2018-12-27T15:07:43.081Z,9.73
2018-12-27T15:13:07.328Z,10.10
2018-12-27T15:15:49.177Z,11.63
2018-12-27T15:18:30.235Z,10.67
2018-12-27T15:21:14.715Z,10.17
2018-12-27T15:27:41.204Z,10.00
2018-12-27T15:30:22.433Z,10.60
2018-12-27T15:36:57.998Z,11.60
2018-12-27T15:39:58.601Z,11.63
2018-12-27T15:42:40.517Z,11.27
2018-12-27T16:02:16.840Z,12.40
2018-12-27T16:04:58.669Z,10.70
2018-12-27T16:07:40.031Z,11.43
2018-12-27T16:10:21.321Z,11.83
2018-12-27T16:13:02.871Z,11.93
2018-12-27T16:15:44.229Z,12.13
2018-12-27T16:18:26.044Z,12.17
2018-12-27T16:21:07.660Z,12.70
2018-12-27T16:23:49.600Z,11.93
2018-12-27T16:26:30.786Z,11.80
2018-12-27T16:29:11.835Z,12.10
2018-12-27T16:31:53.220Z,12.70
2018-12-27T16:34:34.867Z,13.30
2018-12-27T16:37:16.091Z,12.23
2018-12-27T16:39:57.237Z,13.40
2018-12-27T16:42:38.653Z,15.13
2018-12-27T16:45:19.659Z,16.80
2018-12-27T16:48:00.963Z,18.07
2018-12-27T16:50:42.811Z,19.63
2018-12-27T16:53:24.235Z,16.70
2018-12-27T16:56:05.424Z,17.03
2018-12-27T16:58:47.438Z,17.90
2018-12-27T17:01:28.871Z,19.13
2018-12-27T17:04:10.777Z,17.97
2018-12-27T17:06:52.038Z,19.47
2018-12-27T17:09:33.932Z,20.30
2018-12-27T17:12:15.053Z,19.27
2018-12-27T17:14:56.928Z,19.73
2018-12-27T17:17:37.959Z,18.57
2018-12-27T17:20:19.805Z,18.53
2018-12-27T17:23:01.277Z,19.90
2018-12-27T17:25:42.981Z,18.90
2018-12-27T17:28:24.913Z,20.23
2018-12-27T17:31:06.403Z,33.33
2018-12-27T17:33:47.667Z,21.37
2018-12-27T17:36:31.033Z,20.63
2018-12-27T17:39:12.744Z,18.70
2018-12-27T17:41:54.146Z,19.30
2018-12-27T17:44:35.720Z,18.37
2018-12-27T17:47:16.841Z,17.83
2018-12-27T17:49:57.944Z,17.27
2018-12-27T17:52:39.445Z,17.60
2018-12-27T17:55:20.705Z,16.80
2018-12-27T17:58:01.775Z,17.57
2018-12-27T18:00:43.145Z,18.93
2018-12-27T18:03:24.593Z,26.13
2018-12-27T18:06:06.292Z,22.67
2018-12-27T18:08:47.443Z,20.63
2018-12-27T18:11:28.568Z,18.93
2018-12-27T18:14:10.089Z,21.50
2018-12-27T18:16:51.525Z,20.17
2018-12-27T18:19:32.800Z,21.73
2018-12-27T18:22:14.345Z,23.80
2018-12-27T18:24:56.008Z,24.60
2018-12-27T18:27:37.591Z,19.60
2018-12-27T18:30:19.498Z,19.73
2018-12-27T18:33:01.495Z,19.63
2018-12-27T18:35:43.342Z,18.90
2018-12-27T18:38:25.227Z,20.33
2018-12-27T18:41:07.011Z,18.20
2018-12-27T18:43:48.309Z,17.80
2018-12-27T18:46:29.686Z,21.37
2018-12-27T18:49:10.804Z,22.40
2018-12-27T18:51:52.393Z,23.13
2018-12-27T18:54:34.414Z,20.93
2018-12-27T18:57:15.684Z,21.80
2018-12-27T18:59:57.320Z,18.03
2018-12-27T19:02:42.004Z,17.47
2018-12-27T19:05:22.203Z,16.30
2018-12-27T19:08:03.743Z,16.60
2018-12-27T19:10:51.490Z,15.63
2018-12-27T19:13:28.320Z,15.37
2018-12-27T19:16:09.705Z,17.20
2018-12-27T19:18:51.158Z,17.20
2018-12-27T19:21:32.516Z,16.67
2018-12-27T19:24:13.822Z,18.50
2018-12-27T19:26:55.143Z,19.80
2018-12-27T19:29:36.565Z,19.83
2018-12-27T19:32:18.425Z,21.87
2018-12-27T19:34:59.452Z,18.13
2018-12-27T19:37:40.739Z,16.50
2018-12-27T19:40:22.385Z,17.30
2018-12-27T19:43:03.862Z,16.00
2018-12-27T19:45:45.517Z,16.07
2018-12-27T19:48:27.045Z,16.60
2018-12-27T19:51:08.344Z,16.00
2018-12-27T19:53:50.225Z,14.20
2018-12-27T19:56:31.401Z,14.67
2018-12-27T19:59:12.425Z,15.10
2018-12-27T20:01:53.526Z,14.87
2018-12-27T20:04:34.967Z,15.50
2018-12-27T20:07:16.053Z,16.10
2018-12-27T20:12:40.604Z,15.10
2018-12-27T20:15:22.453Z,13.30
2018-12-27T20:18:04.393Z,13.60
2018-12-27T20:20:45.751Z,14.43
2018-12-27T20:23:26.845Z,14.57
2018-12-27T20:26:08.181Z,14.53
2018-12-27T20:28:49.621Z,13.93
2018-12-27T20:31:30.939Z,13.83
2018-12-27T20:34:12.373Z,15.07
2018-12-27T20:36:53.940Z,15.60
2018-12-27T20:39:35.277Z,15.40
2018-12-27T20:42:16.490Z,14.47
2018-12-27T20:48:36.969Z,14.50
2018-12-27T20:51:18.296Z,14.67
2018-12-27T20:54:00.156Z,14.13
2018-12-27T20:56:41.273Z,15.03
2018-12-27T20:59:22.343Z,16.50
2018-12-27T21:02:03.445Z,16.50
2018-12-27T21:04:44.812Z,18.40
2018-12-27T21:07:26.176Z,24.70
2018-12-27T21:10:08.094Z,23.23
2018-12-27T21:12:49.260Z,19.53
2018-12-27T21:15:31.043Z,17.77
2018-12-27T21:18:12.300Z,19.63
2018-12-27T21:20:53.688Z,21.27
2018-12-27T21:23:35.053Z,20.80
2018-12-27T21:26:16.316Z,21.93
2018-12-27T21:28:57.420Z,19.07
2018-12-27T21:31:39.148Z,18.97
2018-12-27T21:34:20.186Z,18.57
2018-12-27T21:37:01.757Z,17.40
2018-12-27T21:39:43.461Z,19.27
2018-12-27T21:42:24.966Z,17.83
2018-12-27T21:45:06.286Z,19.27
2018-12-27T21:47:47.767Z,18.13
2018-12-27T21:50:29.400Z,18.70
2018-12-27T21:53:10.599Z,18.60
2018-12-27T21:55:51.927Z,22.63
2018-12-27T21:58:33.150Z,26.23
2018-12-27T22:01:14.255Z,22.80
2018-12-27T22:03:55.752Z,23.63
2018-12-27T22:06:36.889Z,24.30
2018-12-27T22:09:18.374Z,24.30
2018-12-27T22:11:59.531Z,24.37
2018-12-27T22:14:40.602Z,24.77
2018-12-27T22:17:21.989Z,25.93
2018-12-27T22:20:03.295Z,26.83
2018-12-27T22:22:44.540Z,23.10
2018-12-27T22:25:25.854Z,24.23
2018-12-27T22:28:07.696Z,23.50
2018-12-27T22:30:48.923Z,22.33
2018-12-27T22:33:30.319Z,22.40
2018-12-27T22:36:11.712Z,23.37
2018-12-27T22:38:53.801Z,22.27
2018-12-27T22:41:35.489Z,24.03
2018-12-27T22:44:16.831Z,24.40
2018-12-27T22:46:57.916Z,30.63
2018-12-27T22:49:39.739Z,29.87
2018-12-27T22:52:20.863Z,29.73
2018-12-27T22:55:03.828Z,26.90
2018-12-27T22:57:45.322Z,22.30
2018-12-27T23:00:28.351Z,21.60
2018-12-27T23:03:09.998Z,19.00
2018-12-27T23:05:51.309Z,20.47
2018-12-27T23:08:32.527Z,18.73
2018-12-27T23:11:14.395Z,17.30
2018-12-27T23:13:56.157Z,16.73
2018-12-27T23:16:37.615Z,17.13
2018-12-27T23:19:18.905Z,17.17
2018-12-27T23:22:00.841Z,16.63
2018-12-27T23:24:42.644Z,16.17
2018-12-27T23:27:24.672Z,15.90
2018-12-27T23:30:05.919Z,16.20
2018-12-27T23:32:50.418Z,15.70
2018-12-27T23:35:31.540Z,16.27
2018-12-27T23:38:12.681Z,15.33
2018-12-27T23:40:53.725Z,18.57
2018-12-27T23:43:35.656Z,20.50
2018-12-27T23:46:17.520Z,23.20
2018-12-27T23:48:58.882Z,21.30
2018-12-27T23:51:40.129Z,21.03
2018-12-27T23:54:21.230Z,21.80
2018-12-27T23:57:02.433Z,21.03
2018-12-27T23:59:44.193Z,21.93
